createdAt,value
2023-10-27T00:01:32.216Z,10.70
2023-10-27T00:04:02.029Z,10.70
2023-10-27T00:06:34.104Z,10.70
2023-10-27T00:09:02.567Z,10.70
2023-10-27T00:11:31.054Z,10.80
2023-10-27T00:13:59.401Z,10.80
2023-10-27T00:16:27.789Z,10.80
2023-10-27T00:18:56.250Z,10.70
2023-10-27T00:21:26.055Z,10.80
2023-10-27T00:23:54.468Z,10.70
2023-10-27T00:26:23.731Z,10.80
2023-10-27T00:28:52.444Z,10.80
2023-10-27T00:31:20.940Z,10.80
2023-10-27T00:33:49.372Z,10.70
2023-10-27T00:36:18.995Z,10.70
2023-10-27T00:38:49.427Z,10.80
2023-10-27T00:41:17.759Z,10.70
2023-10-27T00:43:46.709Z,10.80
2023-10-27T00:46:15.130Z,10.70
2023-10-27T00:48:43.561Z,10.70
2023-10-27T00:51:12.525Z,10.70
2023-10-27T00:53:40.878Z,10.70
2023-10-27T00:56:10.723Z,10.70
2023-10-27T00:58:39.886Z,10.70
2023-10-27T01:01:08.262Z,10.70
2023-10-27T01:03:36.621Z,10.60
2023-10-27T01:06:05.636Z,10.60
2023-10-27T01:08:33.992Z,10.60
2023-10-27T01:11:02.489Z,10.60
2023-10-27T01:13:32.705Z,10.60
2023-10-27T01:16:01.152Z,10.60
2023-10-27T01:18:29.650Z,10.60
2023-10-27T01:20:58.052Z,10.60
2023-10-27T01:23:27.890Z,10.60
2023-10-27T01:25:56.282Z,10.60
2023-10-27T01:28:24.722Z,10.60
2023-10-27T01:30:53.689Z,10.50
2023-10-27T01:33:22.946Z,10.60
2023-10-27T01:35:53.430Z,10.60
2023-10-27T01:38:21.756Z,10.60
2023-10-27T01:40:51.501Z,10.60
2023-10-27T01:43:19.925Z,10.60
2023-10-27T01:45:48.244Z,10.60
2023-10-27T01:48:16.666Z,10.60
2023-10-27T01:50:45.004Z,10.60
2023-10-27T01:53:13.355Z,10.60
2023-10-27T01:55:41.710Z,10.60
2023-10-27T01:58:11.597Z,10.60
2023-10-27T02:00:40.027Z,10.60
2023-10-27T02:03:08.877Z,10.50
2023-10-27T02:05:37.309Z,10.50
2023-10-27T02:08:06.393Z,10.50
2023-10-27T02:10:34.832Z,10.50
2023-10-27T02:13:03.239Z,10.50
2023-10-27T02:15:33.145Z,10.50
2023-10-27T02:18:01.478Z,10.50
2023-10-27T02:20:31.405Z,10.50
2023-10-27T02:22:59.913Z,10.50
2023-10-27T02:25:28.242Z,10.50
2023-10-27T02:27:56.730Z,10.50
2023-10-27T02:30:25.140Z,10.50
2023-10-27T02:32:54.939Z,10.50
2023-10-27T02:35:24.022Z,10.50
2023-10-27T02:37:52.362Z,10.50
2023-10-27T02:40:20.719Z,10.50
2023-10-27T02:42:49.387Z,10.50
2023-10-27T02:45:17.944Z,10.50
2023-10-27T02:47:46.361Z,10.50
2023-10-27T02:50:16.157Z,10.50
2023-10-27T02:52:44.555Z,10.50
2023-10-27T02:55:13.339Z,10.50
2023-10-27T02:57:41.937Z,10.50
2023-10-27T03:00:11.689Z,10.50
2023-10-27T03:02:40.073Z,10.50
2023-10-27T03:05:09.810Z,10.50
2023-10-27T03:07:39.624Z,10.50
2023-10-27T03:10:09.052Z,10.50
2023-10-27T03:12:37.453Z,10.50
2023-10-27T03:15:06.899Z,10.60
2023-10-27T03:17:35.212Z,10.60
2023-10-27T03:20:06.082Z,10.60
2023-10-27T03:22:35.022Z,10.50
2023-10-27T03:25:05.369Z,10.50
2023-10-27T03:27:34.435Z,10.50
2023-10-27T03:30:04.311Z,10.50
2023-10-27T03:32:32.678Z,10.50
2023-10-27T03:35:01.613Z,10.60
2023-10-27T03:37:31.069Z,10.50
2023-10-27T03:40:00.027Z,10.50
2023-10-27T03:42:29.835Z,10.50
2023-10-27T03:44:58.392Z,10.50
2023-10-27T03:47:26.731Z,10.60
2023-10-27T03:49:55.279Z,10.60
2023-10-27T03:52:23.785Z,10.60
2023-10-27T03:54:52.140Z,10.50
2023-10-27T03:57:21.032Z,10.50
2023-10-27T03:59:50.947Z,10.50
2023-10-27T04:02:19.294Z,10.50
2023-10-27T04:04:47.796Z,10.50
2023-10-27T04:07:16.289Z,10.50
2023-10-27T04:09:44.781Z,10.50
2023-10-27T04:12:13.122Z,10.50
2023-10-27T04:14:41.520Z,10.50
2023-10-27T04:17:11.210Z,10.50
2023-10-27T04:19:39.694Z,10.50
2023-10-27T04:22:08.669Z,10.50
2023-10-27T04:24:37.081Z,10.50
2023-10-27T04:27:05.905Z,10.40
2023-10-27T04:29:34.300Z,10.50
2023-10-27T04:32:03.640Z,10.50
2023-10-27T04:34:33.599Z,10.40
2023-10-27T04:37:02.434Z,10.40
2023-10-27T04:39:30.809Z,10.50
2023-10-27T04:41:59.237Z,10.40
2023-10-27T04:44:27.524Z,10.40
2023-10-27T04:46:55.889Z,10.40
2023-10-27T04:49:24.303Z,10.40
2023-10-27T04:51:54.150Z,10.40
2023-10-27T04:54:22.627Z,10.40
2023-10-27T04:56:51.006Z,10.40
2023-10-27T04:59:19.526Z,10.40
2023-10-27T05:01:47.939Z,10.40
2023-10-27T05:04:16.511Z,10.40
2023-10-27T05:06:46.861Z,10.40
2023-10-27T05:09:19.921Z,10.40
2023-10-27T05:11:48.734Z,10.40
2023-10-27T05:14:17.082Z,10.40
2023-10-27T05:16:46.878Z,10.40
2023-10-27T05:19:15.429Z,10.40
2023-10-27T05:21:44.055Z,10.40
2023-10-27T05:24:12.512Z,10.40
2023-10-27T05:26:42.794Z,10.50
2023-10-27T05:29:11.345Z,10.50
2023-10-27T05:31:41.146Z,10.40
2023-10-27T05:34:09.595Z,10.40
2023-10-27T05:36:38.096Z,10.40
2023-10-27T05:39:06.781Z,10.40
2023-10-27T05:41:35.169Z,10.30
2023-10-27T05:44:05.104Z,10.30
2023-10-27T05:46:33.533Z,10.40
2023-10-27T05:49:02.295Z,10.40
2023-10-27T05:51:30.679Z,10.40
2023-10-27T05:53:59.741Z,10.40
2023-10-27T05:56:28.608Z,10.40
2023-10-27T05:58:56.960Z,10.40
2023-10-27T06:01:26.983Z,10.40
2023-10-27T06:03:58.965Z,10.40
2023-10-27T06:06:28.374Z,10.40
2023-10-27T06:08:57.943Z,10.40
2023-10-27T06:11:26.540Z,10.30
2023-10-27T06:13:56.177Z,10.40
2023-10-27T06:16:26.333Z,10.30
2023-10-27T06:18:55.372Z,10.40
2023-10-27T06:21:23.755Z,10.40
2023-10-27T06:23:52.150Z,10.40
2023-10-27T06:26:20.568Z,10.40
2023-10-27T06:28:49.275Z,10.40
2023-10-27T06:31:17.754Z,10.50
2023-10-27T06:33:47.468Z,10.50
2023-10-27T06:36:15.803Z,10.50
2023-10-27T06:38:44.225Z,10.50
2023-10-27T06:41:12.577Z,10.50
2023-10-27T06:43:41.007Z,10.50
2023-10-27T06:46:09.876Z,10.50
2023-10-27T06:48:38.681Z,10.60
2023-10-27T06:51:09.186Z,10.60
2023-10-27T06:53:37.734Z,10.60
2023-10-27T06:56:07.364Z,10.60
2023-10-27T06:58:35.770Z,10.60
2023-10-27T07:01:08.384Z,10.60
2023-10-27T07:03:38.559Z,10.60
2023-10-27T07:06:08.712Z,10.60
2023-10-27T07:08:38.941Z,10.60
2023-10-27T07:11:07.357Z,10.60
2023-10-27T07:13:36.130Z,10.70
2023-10-27T07:16:05.167Z,10.70
2023-10-27T07:18:33.645Z,10.70
2023-10-27T07:21:02.231Z,10.70
2023-10-27T07:23:32.259Z,10.70
2023-10-27T07:26:00.724Z,10.70
2023-10-27T07:28:29.274Z,10.70
2023-10-27T07:30:57.700Z,10.70
2023-10-27T07:33:26.303Z,10.70
2023-10-27T07:35:54.717Z,10.80
2023-10-27T07:38:23.618Z,10.80
2023-10-27T07:40:56.677Z,10.70
2023-10-27T07:43:25.223Z,10.80
2023-10-27T07:45:55.503Z,10.80
2023-10-27T07:48:24.003Z,10.80
2023-10-27T07:50:52.475Z,10.80
2023-10-27T07:53:20.898Z,10.80
2023-10-27T07:55:49.442Z,10.80
2023-10-27T07:58:19.328Z,10.80
2023-10-27T08:00:47.792Z,10.70
2023-10-27T08:03:16.244Z,10.80
2023-10-27T08:05:44.868Z,10.80
2023-10-27T08:08:15.938Z,10.80
2023-10-27T08:10:48.569Z,10.80
2023-10-27T08:13:18.835Z,10.80
2023-10-27T08:15:47.340Z,10.80
2023-10-27T08:18:15.914Z,10.90
2023-10-27T08:20:44.417Z,10.90
2023-10-27T08:23:12.870Z,10.80
2023-10-27T08:25:41.364Z,10.90
2023-10-27T08:28:10.471Z,10.80
2023-10-27T08:30:40.299Z,10.80
2023-10-27T08:33:09.318Z,10.90
2023-10-27T08:35:37.766Z,10.90
2023-10-27T08:38:06.163Z,10.90
2023-10-27T08:40:34.536Z,10.90
2023-10-27T08:43:04.381Z,10.90
2023-10-27T08:45:35.420Z,10.90
2023-10-27T08:48:06.087Z,10.90
2023-10-27T08:50:36.537Z,10.90
2023-10-27T08:53:06.192Z,10.90
2023-10-27T08:55:34.682Z,10.90
2023-10-27T08:58:03.176Z,10.90
2023-10-27T09:00:31.597Z,10.90
2023-10-27T09:03:00.670Z,10.90
2023-10-27T09:05:30.854Z,10.90
2023-10-27T09:07:59.469Z,10.90
2023-10-27T09:10:28.020Z,10.90
2023-10-27T09:13:00.863Z,10.90
2023-10-27T09:15:29.480Z,10.90
2023-10-27T09:17:59.119Z,10.90
2023-10-27T09:20:29.378Z,11.00
2023-10-27T09:22:59.333Z,11.00
2023-10-27T09:25:31.100Z,11.00
2023-10-27T09:28:00.330Z,11.00
2023-10-27T09:30:28.943Z,11.10
2023-10-27T09:32:57.756Z,11.10
2023-10-27T09:35:26.317Z,11.20
2023-10-27T09:37:56.848Z,11.20
2023-10-27T09:40:25.307Z,11.30
2023-10-27T09:42:55.934Z,11.30
2023-10-27T09:45:24.743Z,11.30
2023-10-27T09:47:54.225Z,11.30
2023-10-27T09:50:26.863Z,11.40
2023-10-27T09:52:58.665Z,11.40
2023-10-27T09:55:27.176Z,11.50
2023-10-27T09:57:55.690Z,11.50
2023-10-27T10:00:28.563Z,11.70
2023-10-27T10:02:57.960Z,11.60
2023-10-27T10:05:27.364Z,11.60
2023-10-27T10:07:58.163Z,11.50
2023-10-27T10:10:31.634Z,11.50
2023-10-27T10:13:09.559Z,11.50
2023-10-27T10:15:39.106Z,11.50
2023-10-27T10:18:08.190Z,11.60
2023-10-27T10:20:58.545Z,11.60
2023-10-27T10:24:10.861Z,11.60
2023-10-27T10:27:12.021Z,11.70
2023-10-27T10:29:41.481Z,11.70
2023-10-27T10:32:32.781Z,11.80
2023-10-27T10:35:23.558Z,11.80
2023-10-27T10:37:55.330Z,11.80
2023-10-27T10:40:29.140Z,11.80
2023-10-27T10:43:19.592Z,11.80
2023-10-27T10:45:51.525Z,11.80
2023-10-27T10:48:20.597Z,11.90
2023-10-27T10:50:49.983Z,11.90
2023-10-27T10:53:20.803Z,11.90
2023-10-27T10:55:51.826Z,11.90
2023-10-27T10:58:24.257Z,11.90
2023-10-27T11:00:53.116Z,12.00
2023-10-27T11:03:24.057Z,12.00
2023-10-27T11:05:56.200Z,12.00
2023-10-27T11:08:26.948Z,12.10
2023-10-27T11:11:04.412Z,12.00
2023-10-27T11:13:34.434Z,12.00
2023-10-27T11:16:03.062Z,12.00
2023-10-27T11:18:32.714Z,12.00
2023-10-27T11:21:01.327Z,12.00
2023-10-27T11:23:30.285Z,12.00
2023-10-27T11:26:07.011Z,12.00
2023-10-27T11:28:41.040Z,12.00
2023-10-27T11:31:13.590Z,12.00
2023-10-27T11:34:02.588Z,12.00
2023-10-27T11:36:33.184Z,12.00
2023-10-27T11:39:14.501Z,12.00
2023-10-27T11:41:45.083Z,12.00
2023-10-27T11:44:13.512Z,12.00
2023-10-27T11:46:47.852Z,12.00
2023-10-27T11:49:16.365Z,12.10
2023-10-27T11:51:45.048Z,12.10
2023-10-27T11:54:13.793Z,12.10
2023-10-27T11:56:43.563Z,12.10
2023-10-27T11:59:12.249Z,12.10
2023-10-27T12:01:40.612Z,12.10
2023-10-27T12:04:12.021Z,12.10
2023-10-27T12:06:40.579Z,12.00
2023-10-27T12:09:09.138Z,12.10
2023-10-27T12:11:37.539Z,12.10
2023-10-27T12:14:07.301Z,12.10
2023-10-27T12:16:35.906Z,12.10
2023-10-27T12:19:04.295Z,12.10
2023-10-27T12:21:34.381Z,12.10
2023-10-27T12:24:03.037Z,12.10
2023-10-27T12:26:31.775Z,12.20
2023-10-27T12:29:00.170Z,12.10
2023-10-27T12:31:29.999Z,12.10
2023-10-27T12:33:59.802Z,12.10
2023-10-27T12:36:28.320Z,12.10
2023-10-27T12:38:56.805Z,12.10
2023-10-27T12:41:25.578Z,12.10
2023-10-27T12:43:54.027Z,12.10
2023-10-27T12:46:24.146Z,12.10
2023-10-27T12:49:08.936Z,12.10
2023-10-27T12:51:39.316Z,12.00
2023-10-27T12:54:09.480Z,11.90
2023-10-27T12:56:37.872Z,11.80
2023-10-27T12:59:06.644Z,11.80
2023-10-27T13:01:35.081Z,11.80
2023-10-27T13:04:03.740Z,11.80
2023-10-27T13:06:34.754Z,11.80
2023-10-27T13:09:03.257Z,11.70
2023-10-27T13:11:32.300Z,11.70
2023-10-27T13:14:00.789Z,11.70
2023-10-27T13:16:29.258Z,11.70
2023-10-27T13:18:57.768Z,11.70
2023-10-27T13:21:26.186Z,11.70
2023-10-27T13:23:56.031Z,11.70
2023-10-27T13:26:24.449Z,11.60
2023-10-27T13:28:53.487Z,11.60
2023-10-27T13:31:21.954Z,11.50
2023-10-27T13:33:51.107Z,11.50
2023-10-27T13:36:19.613Z,11.40
2023-10-27T13:38:53.426Z,11.40
2023-10-27T13:41:35.890Z,11.40
2023-10-27T13:44:05.976Z,11.30
2023-10-27T13:46:34.808Z,11.30
2023-10-27T13:49:07.322Z,11.20
2023-10-27T13:51:37.913Z,11.10
2023-10-27T13:54:07.169Z,11.00
2023-10-27T13:56:37.415Z,11.00
2023-10-27T13:59:05.859Z,10.90
2023-10-27T14:01:34.775Z,10.90
2023-10-27T14:04:05.039Z,10.90
2023-10-27T14:06:33.912Z,10.90
2023-10-27T14:09:02.275Z,10.90
2023-10-27T14:11:30.648Z,10.90
2023-10-27T14:14:00.497Z,10.90
2023-10-27T14:16:28.960Z,10.90
2023-10-27T14:18:57.365Z,10.80
2023-10-27T14:21:26.260Z,10.80
2023-10-27T14:23:54.670Z,10.80
2023-10-27T14:26:23.140Z,10.70
2023-10-27T14:28:51.530Z,10.70
2023-10-27T14:31:22.506Z,10.70
2023-10-27T14:33:50.979Z,10.60
2023-10-27T14:36:21.210Z,10.60
2023-10-27T14:38:49.758Z,10.60
2023-10-27T14:41:19.135Z,10.70
2023-10-27T14:43:47.640Z,10.70
2023-10-27T14:46:16.360Z,10.70
2023-10-27T14:48:49.799Z,10.80
2023-10-27T14:51:20.408Z,10.80
2023-10-27T14:53:48.806Z,10.80
2023-10-27T14:56:17.829Z,10.80
2023-10-27T14:58:46.175Z,10.80
2023-10-27T15:01:15.793Z,10.70
2023-10-27T15:03:46.142Z,10.80
2023-10-27T15:06:14.774Z,10.70
2023-10-27T15:08:43.127Z,10.70
2023-10-27T15:11:13.012Z,10.70
2023-10-27T15:13:41.435Z,10.70
2023-10-27T15:16:11.455Z,10.70
2023-10-27T15:18:40.149Z,10.70
2023-10-27T15:21:11.368Z,10.70
2023-10-27T15:23:39.804Z,10.60
2023-10-27T15:26:09.283Z,10.60
2023-10-27T15:28:37.781Z,10.60
2023-10-27T15:31:07.270Z,10.60
2023-10-27T15:33:35.936Z,10.50
2023-10-27T15:36:11.170Z,10.60
2023-10-27T15:38:41.779Z,10.60
2023-10-27T15:41:25.222Z,10.60
2023-10-27T15:43:53.555Z,10.70
2023-10-27T15:46:22.085Z,10.70
2023-10-27T15:48:50.608Z,10.70
2023-10-27T15:51:21.802Z,10.70
2023-10-27T15:53:50.519Z,10.70
2023-10-27T15:56:20.406Z,10.70
2023-10-27T15:58:49.069Z,10.70
2023-10-27T16:01:17.733Z,10.70
2023-10-27T16:03:46.130Z,10.70
2023-10-27T16:06:19.545Z,10.80
2023-10-27T16:08:48.014Z,10.70
2023-10-27T16:11:16.446Z,10.70
2023-10-27T16:13:44.993Z,10.70
2023-10-27T16:16:14.233Z,10.70
2023-10-27T16:18:42.787Z,10.70
2023-10-27T16:21:12.769Z,10.80
2023-10-27T16:23:44.498Z,10.70
2023-10-27T16:26:14.940Z,10.70
2023-10-27T16:28:43.432Z,10.70
2023-10-27T16:31:11.816Z,10.70
2023-10-27T16:33:41.405Z,10.60
2023-10-27T16:36:10.800Z,10.70
2023-10-27T16:38:39.193Z,10.60
2023-10-27T16:41:09.691Z,10.70
2023-10-27T16:43:41.219Z,10.60
2023-10-27T16:46:09.648Z,10.60
2023-10-27T16:48:38.085Z,10.70
2023-10-27T16:51:10.694Z,10.70
2023-10-27T16:53:40.787Z,10.70
2023-10-27T16:56:12.284Z,10.70
2023-10-27T16:58:40.736Z,10.70
2023-10-27T17:01:09.236Z,10.70
2023-10-27T17:03:38.386Z,10.70
2023-10-27T17:06:07.385Z,10.70
2023-10-27T17:08:35.815Z,10.60
2023-10-27T17:11:06.707Z,10.60
2023-10-27T17:13:39.975Z,10.60
2023-10-27T17:16:10.333Z,10.60
2023-10-27T17:18:40.495Z,10.60
2023-10-27T17:21:13.352Z,10.60
2023-10-27T17:23:41.939Z,10.60
2023-10-27T17:26:10.393Z,10.60
2023-10-27T17:28:40.842Z,10.50
2023-10-27T17:31:10.752Z,10.50
2023-10-27T17:33:39.808Z,10.50
2023-10-27T17:36:11.336Z,10.50
2023-10-27T17:38:40.049Z,10.50
2023-10-27T17:41:10.095Z,10.40
2023-10-27T17:43:40.187Z,10.40
2023-10-27T17:46:08.932Z,10.40
2023-10-27T17:48:37.727Z,10.40
2023-10-27T17:51:09.354Z,10.40
2023-10-27T17:53:39.552Z,10.40
2023-10-27T17:56:09.116Z,10.40
2023-10-27T17:58:39.735Z,10.40
2023-10-27T18:01:09.532Z,10.40
2023-10-27T18:03:38.273Z,10.40
2023-10-27T18:06:08.943Z,10.40
2023-10-27T18:08:37.534Z,10.40
2023-10-27T18:11:06.283Z,10.40
2023-10-27T18:13:34.712Z,10.40
2023-10-27T18:16:06.764Z,10.40
2023-10-27T18:18:36.041Z,10.30
2023-10-27T18:21:05.113Z,10.30
2023-10-27T18:23:33.491Z,10.30
2023-10-27T18:26:02.078Z,10.30
2023-10-27T18:28:30.532Z,10.30
2023-10-27T18:31:04.783Z,10.30
2023-10-27T18:33:33.072Z,10.30
2023-10-27T18:36:01.481Z,10.30
2023-10-27T18:38:31.060Z,10.30
2023-10-27T18:41:01.350Z,10.30
2023-10-27T18:43:29.872Z,10.30
2023-10-27T18:45:58.409Z,10.30
2023-10-27T18:48:28.184Z,10.30
2023-10-27T18:50:56.820Z,10.20
2023-10-27T18:53:25.193Z,10.20
2023-10-27T18:56:02.788Z,10.20
2023-10-27T18:58:31.267Z,10.20
2023-10-27T19:01:04.469Z,10.20
2023-10-27T19:03:34.624Z,10.20
2023-10-27T19:06:03.972Z,10.20
2023-10-27T19:08:32.807Z,10.20
2023-10-27T19:11:08.853Z,10.20
2023-10-27T19:13:37.470Z,10.10
2023-10-27T19:16:07.841Z,10.10
2023-10-27T19:18:38.582Z,10.10
2023-10-27T19:21:10.559Z,10.10
2023-10-27T19:23:39.352Z,10.10
2023-10-27T19:26:13.993Z,10.20
2023-10-27T19:28:43.044Z,10.20
2023-10-27T19:31:11.815Z,10.20
2023-10-27T19:33:41.646Z,10.20
2023-10-27T19:36:10.757Z,10.20
2023-10-27T19:38:41.094Z,10.20
2023-10-27T19:41:10.286Z,10.20
2023-10-27T19:43:38.624Z,10.10
2023-10-27T19:46:07.979Z,10.20
2023-10-27T19:48:36.578Z,10.10
2023-10-27T19:51:06.944Z,10.10
2023-10-27T19:53:36.337Z,10.10
2023-10-27T19:56:05.001Z,10.10
2023-10-27T19:58:33.490Z,10.10
2023-10-27T20:01:01.976Z,10.10
2023-10-27T20:03:30.604Z,10.10
2023-10-27T20:06:02.516Z,10.10
2023-10-27T20:08:34.717Z,10.10
2023-10-27T20:11:10.368Z,10.10
2023-10-27T20:13:38.812Z,10.10
2023-10-27T20:16:08.604Z,10.10
2023-10-27T20:18:37.046Z,10.10
2023-10-27T20:21:08.254Z,10.10
2023-10-27T20:23:38.480Z,10.10
2023-10-27T20:26:08.089Z,10.10
2023-10-27T20:28:36.654Z,10.10
2023-10-27T20:31:06.285Z,10.10
2023-10-27T20:33:35.097Z,10.10
2023-10-27T20:36:03.882Z,10.10
2023-10-27T20:38:32.303Z,10.10
2023-10-27T20:41:02.286Z,10.10
2023-10-27T20:43:30.702Z,10.10
2023-10-27T20:46:04.406Z,10.10
2023-10-27T20:48:33.171Z,10.10
2023-10-27T20:51:04.460Z,10.10
2023-10-27T20:53:32.980Z,10.10
2023-10-27T20:56:03.325Z,10.10
2023-10-27T20:58:31.796Z,10.10
2023-10-27T21:01:06.694Z,10.10
2023-10-27T21:03:35.678Z,10.10
2023-10-27T21:06:06.676Z,10.10
2023-10-27T21:08:35.453Z,10.10
2023-10-27T21:11:05.987Z,10.10
2023-10-27T21:13:34.636Z,10.10
2023-10-27T21:16:07.187Z,10.10
2023-10-27T21:18:35.546Z,10.10
2023-10-27T21:21:03.990Z,10.10
2023-10-27T21:23:32.713Z,10.10
2023-10-27T21:26:01.424Z,10.10
2023-10-27T21:28:31.545Z,10.10
2023-10-27T21:30:59.953Z,10.10
2023-10-27T21:33:28.842Z,10.10
2023-10-27T21:35:57.594Z,10.10
2023-10-27T21:38:26.009Z,10.10
2023-10-27T21:40:54.471Z,10.10
2023-10-27T21:43:23.434Z,10.10
2023-10-27T21:45:53.285Z,10.10
2023-10-27T21:48:21.781Z,10.10
2023-10-27T21:50:50.245Z,10.10
2023-10-27T21:53:18.751Z,10.10
2023-10-27T21:55:47.275Z,10.10
2023-10-27T21:58:18.826Z,10.10
2023-10-27T22:00:47.902Z,10.10
2023-10-27T22:03:19.477Z,10.10
2023-10-27T22:05:49.054Z,10.00
2023-10-27T22:08:17.597Z,10.00
2023-10-27T22:10:48.026Z,10.00
2023-10-27T22:13:16.660Z,10.00
2023-10-27T22:15:45.923Z,10.00
2023-10-27T22:18:16.032Z,10.00
2023-10-27T22:20:45.854Z,10.10
2023-10-27T22:23:14.234Z,10.10
2023-10-27T22:25:44.787Z,10.00
2023-10-27T22:28:17.123Z,10.00
2023-10-27T22:30:45.965Z,10.00
2023-10-27T22:33:14.708Z,10.00
2023-10-27T22:35:43.259Z,10.00
2023-10-27T22:38:13.117Z,10.00
2023-10-27T22:40:41.682Z,10.00
2023-10-27T22:43:10.782Z,10.00
2023-10-27T22:45:40.473Z,10.00
2023-10-27T22:48:09.520Z,10.00
2023-10-27T22:50:38.242Z,10.10
2023-10-27T22:53:07.204Z,10.10
2023-10-27T22:55:37.032Z,10.00
2023-10-27T22:58:05.822Z,10.00
2023-10-27T23:00:34.293Z,10.00
2023-10-27T23:03:03.435Z,10.00
2023-10-27T23:05:36.216Z,10.00
2023-10-27T23:08:07.037Z,10.00
2023-10-27T23:10:37.837Z,10.00
2023-10-27T23:13:07.997Z,10.00
2023-10-27T23:15:37.325Z,10.00
2023-10-27T23:18:06.059Z,10.00
2023-10-27T23:20:34.585Z,10.00
2023-10-27T23:23:03.223Z,10.00
2023-10-27T23:25:34.301Z,10.00
2023-10-27T23:28:04.246Z,10.00
2023-10-27T23:30:32.766Z,10.00
2023-10-27T23:33:01.462Z,10.00
2023-10-27T23:35:29.879Z,10.10
2023-10-27T23:37:58.372Z,10.10
2023-10-27T23:40:28.024Z,10.10
2023-10-27T23:42:56.468Z,10.10
2023-10-27T23:45:26.556Z,10.10
2023-10-27T23:47:55.861Z,10.10
2023-10-27T23:50:24.349Z,10.10
2023-10-27T23:52:52.767Z,10.10
2023-10-27T23:55:21.596Z,10.20
2023-10-27T23:57:51.836Z,10.20
